sensor_id;sensor_type;location;lat;lon;timestamp;P1;durP1;ratioP1;P2;durP2;ratioP2
76417;SDS011;65250;47.602;19.002;2023-02-13T00:00:54;12.18;;;6.15;;
76417;SDS011;65250;47.602;19.002;2023-02-13T00:03:23;15.10;;;7.78;;
76417;SDS011;65250;47.602;19.002;2023-02-13T00:05:50;12.93;;;6.95;;
76417;SDS011;65250;47.602;19.002;2023-02-13T00:08:18;13.20;;;6.85;;
76417;SDS011;65250;47.602;19.002;2023-02-13T00:10:46;14.05;;;7.05;;
76417;SDS011;65250;47.602;19.002;2023-02-13T00:13:14;15.30;;;6.88;;
76417;SDS011;65250;47.602;19.002;2023-02-13T00:15:42;14.75;;;6.40;;
76417;SDS011;65250;47.602;19.002;2023-02-13T00:18:10;15.25;;;6.90;;
76417;SDS011;65250;47.602;19.002;2023-02-13T00:20:38;15.95;;;6.65;;
76417;SDS011;65250;47.602;19.002;2023-02-13T00:23:05;13.45;;;6.47;;
76417;SDS011;65250;47.602;19.002;2023-02-13T00:25:33;18.25;;;6.88;;
76417;SDS011;65250;47.602;19.002;2023-02-13T00:28:01;15.32;;;7.82;;
76417;SDS011;65250;47.602;19.002;2023-02-13T00:30:28;16.60;;;7.72;;
76417;SDS011;65250;47.602;19.002;2023-02-13T00:32:56;17.70;;;7.38;;
76417;SDS011;65250;47.602;19.002;2023-02-13T00:35:24;16.35;;;6.85;;
76417;SDS011;65250;47.602;19.002;2023-02-13T00:37:51;14.23;;;6.67;;
76417;SDS011;65250;47.602;19.002;2023-02-13T00:40:19;15.98;;;7.40;;
76417;SDS011;65250;47.602;19.002;2023-02-13T00:42:47;15.43;;;7.15;;
76417;SDS011;65250;47.602;19.002;2023-02-13T00:45:15;12.48;;;7.03;;
76417;SDS011;65250;47.602;19.002;2023-02-13T00:47:43;14.57;;;7.35;;
76417;SDS011;65250;47.602;19.002;2023-02-13T00:50:11;13.27;;;6.50;;
76417;SDS011;65250;47.602;19.002;2023-02-13T00:52:38;14.38;;;6.50;;
76417;SDS011;65250;47.602;19.002;2023-02-13T00:55:06;16.05;;;7.57;;
76417;SDS011;65250;47.602;19.002;2023-02-13T00:57:33;17.65;;;7.28;;
76417;SDS011;65250;47.602;19.002;2023-02-13T01:00:01;14.95;;;6.95;;
76417;SDS011;65250;47.602;19.002;2023-02-13T01:02:29;17.90;;;7.28;;
76417;SDS011;65250;47.602;19.002;2023-02-13T01:04:57;15.15;;;7.32;;
76417;SDS011;65250;47.602;19.002;2023-02-13T01:07:24;22.40;;;7.07;;
76417;SDS011;65250;47.602;19.002;2023-02-13T01:09:51;13.50;;;6.72;;
76417;SDS011;65250;47.602;19.002;2023-02-13T01:12:19;14.00;;;6.07;;
76417;SDS011;65250;47.602;19.002;2023-02-13T01:14:47;14.00;;;6.75;;
76417;SDS011;65250;47.602;19.002;2023-02-13T01:17:15;16.20;;;7.88;;
76417;SDS011;65250;47.602;19.002;2023-02-13T01:19:43;13.00;;;6.28;;
76417;SDS011;65250;47.602;19.002;2023-02-13T01:22:10;13.25;;;5.18;;
76417;SDS011;65250;47.602;19.002;2023-02-13T01:24:38;13.63;;;6.05;;
76417;SDS011;65250;47.602;19.002;2023-02-13T01:27:06;15.07;;;5.45;;
76417;SDS011;65250;47.602;19.002;2023-02-13T01:29:33;12.98;;;6.07;;
76417;SDS011;65250;47.602;19.002;2023-02-13T01:32:01;14.45;;;5.93;;
76417;SDS011;65250;47.602;19.002;2023-02-13T01:34:31;13.95;;;5.68;;
76417;SDS011;65250;47.602;19.002;2023-02-13T01:36:59;11.30;;;5.75;;
76417;SDS011;65250;47.602;19.002;2023-02-13T01:39:26;12.05;;;5.65;;
76417;SDS011;65250;47.602;19.002;2023-02-13T01:41:54;12.10;;;5.53;;
76417;SDS011;65250;47.602;19.002;2023-02-13T01:47:28;10.85;;;5.40;;
76417;SDS011;65250;47.602;19.002;2023-02-13T01:50:09;12.75;;;5.65;;
76417;SDS011;65250;47.602;19.002;2023-02-13T01:52:43;11.15;;;4.95;;
76417;SDS011;65250;47.602;19.002;2023-02-13T01:55:14;11.93;;;4.90;;
76417;SDS011;65250;47.602;19.002;2023-02-13T01:57:43;11.05;;;4.80;;
76417;SDS011;65250;47.602;19.002;2023-02-13T02:00:14;10.80;;;5.05;;
76417;SDS011;65250;47.602;19.002;2023-02-13T02:02:44;9.45;;;4.95;;
76417;SDS011;65250;47.602;19.002;2023-02-13T02:05:15;10.05;;;4.82;;
76417;SDS011;65250;47.602;19.002;2023-02-13T02:07:42;9.88;;;4.53;;
76417;SDS011;65250;47.602;19.002;2023-02-13T02:10:13;11.10;;;4.78;;
76417;SDS011;65250;47.602;19.002;2023-02-13T02:12:46;12.75;;;5.30;;
76417;SDS011;65250;47.602;19.002;2023-02-13T02:15:17;11.30;;;4.90;;
76417;SDS011;65250;47.602;19.002;2023-02-13T02:17:44;13.23;;;4.95;;
76417;SDS011;65250;47.602;19.002;2023-02-13T02:20:38;11.32;;;5.25;;
76417;SDS011;65250;47.602;19.002;2023-02-13T02:34:21;12.07;;;4.57;;
76417;SDS011;65250;47.602;19.002;2023-02-13T02:42:19;10.38;;;4.03;;
76417;SDS011;65250;47.602;19.002;2023-02-13T02:44:58;9.07;;;4.30;;
76417;SDS011;65250;47.602;19.002;2023-02-13T02:47:30;10.40;;;4.20;;
76417;SDS011;65250;47.602;19.002;2023-02-13T02:55:48;11.15;;;4.78;;
76417;SDS011;65250;47.602;19.002;2023-02-13T03:01:04;8.95;;;4.55;;
76417;SDS011;65250;47.602;19.002;2023-02-13T03:03:53;10.02;;;3.85;;
76417;SDS011;65250;47.602;19.002;2023-02-13T03:09:19;9.10;;;3.58;;
76417;SDS011;65250;47.602;19.002;2023-02-13T03:12:08;12.35;;;4.80;;
76417;SDS011;65250;47.602;19.002;2023-02-13T03:14:54;10.00;;;4.07;;
76417;SDS011;65250;47.602;19.002;2023-02-13T03:17:21;10.40;;;4.32;;
76417;SDS011;65250;47.602;19.002;2023-02-13T03:28:21;9.02;;;4.22;;
76417;SDS011;65250;47.602;19.002;2023-02-13T03:34:20;8.77;;;4.03;;
76417;SDS011;65250;47.602;19.002;2023-02-13T03:36:53;7.55;;;4.05;;
76417;SDS011;65250;47.602;19.002;2023-02-13T03:44:54;13.35;;;4.28;;
76417;SDS011;65250;47.602;19.002;2023-02-13T03:47:43;9.25;;;4.82;;
76417;SDS011;65250;47.602;19.002;2023-02-13T03:50:11;10.95;;;4.85;;
76417;SDS011;65250;47.602;19.002;2023-02-13T03:52:43;10.93;;;4.38;;
76417;SDS011;65250;47.602;19.002;2023-02-13T03:55:24;11.90;;;4.32;;
76417;SDS011;65250;47.602;19.002;2023-02-13T03:58:14;9.57;;;3.75;;
76417;SDS011;65250;47.602;19.002;2023-02-13T04:01:03;9.80;;;3.75;;
76417;SDS011;65250;47.602;19.002;2023-02-13T04:06:05;9.00;;;4.47;;
76417;SDS011;65250;47.602;19.002;2023-02-13T04:08:35;9.48;;;4.18;;
76417;SDS011;65250;47.602;19.002;2023-02-13T04:11:06;10.45;;;4.63;;
76417;SDS011;65250;47.602;19.002;2023-02-13T04:13:51;8.82;;;4.13;;
76417;SDS011;65250;47.602;19.002;2023-02-13T04:19:41;8.90;;;4.25;;
76417;SDS011;65250;47.602;19.002;2023-02-13T04:22:10;13.45;;;4.22;;
76417;SDS011;65250;47.602;19.002;2023-02-13T04:24:38;10.20;;;4.07;;
76417;SDS011;65250;47.602;19.002;2023-02-13T04:27:06;8.10;;;3.90;;
76417;SDS011;65250;47.602;19.002;2023-02-13T04:29:33;15.23;;;4.53;;
76417;SDS011;65250;47.602;19.002;2023-02-13T04:32:01;9.25;;;3.88;;
76417;SDS011;65250;47.602;19.002;2023-02-13T04:34:28;11.48;;;3.85;;
76417;SDS011;65250;47.602;19.002;2023-02-13T04:36:56;8.63;;;3.80;;
76417;SDS011;65250;47.602;19.002;2023-02-13T04:39:23;10.95;;;4.60;;
76417;SDS011;65250;47.602;19.002;2023-02-13T04:41:51;10.80;;;4.13;;
76417;SDS011;65250;47.602;19.002;2023-02-13T04:44:18;10.70;;;4.50;;
76417;SDS011;65250;47.602;19.002;2023-02-13T04:46:46;9.40;;;4.13;;
76417;SDS011;65250;47.602;19.002;2023-02-13T04:49:14;9.75;;;4.13;;
76417;SDS011;65250;47.602;19.002;2023-02-13T04:51:41;10.55;;;4.80;;
76417;SDS011;65250;47.602;19.002;2023-02-13T04:54:09;11.35;;;4.30;;
76417;SDS011;65250;47.602;19.002;2023-02-13T04:56:37;10.23;;;4.20;;
76417;SDS011;65250;47.602;19.002;2023-02-13T04:59:04;11.27;;;4.80;;
76417;SDS011;65250;47.602;19.002;2023-02-13T05:01:31;12.40;;;4.82;;
76417;SDS011;65250;47.602;19.002;2023-02-13T05:03:59;9.75;;;4.32;;
76417;SDS011;65250;47.602;19.002;2023-02-13T05:06:27;11.80;;;4.43;;
76417;SDS011;65250;47.602;19.002;2023-02-13T05:08:54;11.57;;;4.95;;
76417;SDS011;65250;47.602;19.002;2023-02-13T05:11:22;9.27;;;3.88;;
76417;SDS011;65250;47.602;19.002;2023-02-13T05:13:50;8.23;;;3.67;;
76417;SDS011;65250;47.602;19.002;2023-02-13T05:16:17;10.10;;;4.65;;
76417;SDS011;65250;47.602;19.002;2023-02-13T05:18:45;8.57;;;4.55;;
76417;SDS011;65250;47.602;19.002;2023-02-13T05:21:12;8.10;;;4.10;;
76417;SDS011;65250;47.602;19.002;2023-02-13T05:23:58;8.77;;;4.30;;
76417;SDS011;65250;47.602;19.002;2023-02-13T05:26:26;10.65;;;4.25;;
76417;SDS011;65250;47.602;19.002;2023-02-13T05:28:54;10.68;;;4.25;;
76417;SDS011;65250;47.602;19.002;2023-02-13T05:31:40;12.32;;;4.53;;
76417;SDS011;65250;47.602;19.002;2023-02-13T05:34:08;11.82;;;5.07;;
76417;SDS011;65250;47.602;19.002;2023-02-13T05:36:35;8.88;;;4.70;;
76417;SDS011;65250;47.602;19.002;2023-02-13T05:39:03;11.38;;;4.53;;
76417;SDS011;65250;47.602;19.002;2023-02-13T05:41:31;10.25;;;4.38;;
76417;SDS011;65250;47.602;19.002;2023-02-13T05:43:59;17.55;;;6.38;;
76417;SDS011;65250;47.602;19.002;2023-02-13T05:46:26;13.77;;;5.32;;
76417;SDS011;65250;47.602;19.002;2023-02-13T05:48:54;12.75;;;5.30;;
76417;SDS011;65250;47.602;19.002;2023-02-13T05:51:22;17.17;;;7.60;;
76417;SDS011;65250;47.602;19.002;2023-02-13T05:53:49;16.75;;;6.78;;
76417;SDS011;65250;47.602;19.002;2023-02-13T05:56:17;14.82;;;6.55;;
76417;SDS011;65250;47.602;19.002;2023-02-13T05:58:44;19.70;;;6.78;;
76417;SDS011;65250;47.602;19.002;2023-02-13T06:01:12;15.32;;;6.10;;
76417;SDS011;65250;47.602;19.002;2023-02-13T06:03:40;16.17;;;6.78;;
76417;SDS011;65250;47.602;19.002;2023-02-13T06:06:07;11.43;;;5.35;;
76417;SDS011;65250;47.602;19.002;2023-02-13T06:08:35;12.85;;;6.45;;
76417;SDS011;65250;47.602;19.002;2023-02-13T06:11:02;13.40;;;6.25;;
76417;SDS011;65250;47.602;19.002;2023-02-13T06:13:30;12.18;;;5.78;;
76417;SDS011;65250;47.602;19.002;2023-02-13T06:15:58;18.95;;;7.50;;
76417;SDS011;65250;47.602;19.002;2023-02-13T06:18:25;18.15;;;8.05;;
76417;SDS011;65250;47.602;19.002;2023-02-13T06:20:52;18.83;;;8.98;;
76417;SDS011;65250;47.602;19.002;2023-02-13T06:23:20;18.98;;;9.00;;
76417;SDS011;65250;47.602;19.002;2023-02-13T06:25:48;41.70;;;17.00;;
76417;SDS011;65250;47.602;19.002;2023-02-13T06:28:15;52.95;;;21.95;;
76417;SDS011;65250;47.602;19.002;2023-02-13T06:30:43;35.22;;;15.27;;
76417;SDS011;65250;47.602;19.002;2023-02-13T06:33:10;32.92;;;13.43;;
76417;SDS011;65250;47.602;19.002;2023-02-13T06:35:39;34.60;;;14.40;;
76417;SDS011;65250;47.602;19.002;2023-02-13T06:38:06;27.25;;;11.00;;
76417;SDS011;65250;47.602;19.002;2023-02-13T06:40:34;30.25;;;11.40;;
76417;SDS011;65250;47.602;19.002;2023-02-13T06:43:01;25.17;;;10.57;;
76417;SDS011;65250;47.602;19.002;2023-02-13T06:45:28;19.75;;;9.57;;
76417;SDS011;65250;47.602;19.002;2023-02-13T06:47:55;25.05;;;10.00;;
76417;SDS011;65250;47.602;19.002;2023-02-13T06:50:23;20.38;;;9.57;;
76417;SDS011;65250;47.602;19.002;2023-02-13T06:52:50;21.25;;;9.82;;
76417;SDS011;65250;47.602;19.002;2023-02-13T06:55:18;21.95;;;9.68;;
76417;SDS011;65250;47.602;19.002;2023-02-13T06:57:46;37.35;;;18.50;;
76417;SDS011;65250;47.602;19.002;2023-02-13T07:00:14;37.57;;;14.43;;
76417;SDS011;65250;47.602;19.002;2023-02-13T07:02:42;32.85;;;13.95;;
76417;SDS011;65250;47.602;19.002;2023-02-13T07:05:10;31.30;;;14.50;;
76417;SDS011;65250;47.602;19.002;2023-02-13T07:07:39;33.80;;;16.00;;
76417;SDS011;65250;47.602;19.002;2023-02-13T07:10:10;40.30;;;20.10;;
76417;SDS011;65250;47.602;19.002;2023-02-13T07:12:38;45.33;;;21.73;;
76417;SDS011;65250;47.602;19.002;2023-02-13T07:15:05;41.92;;;22.73;;
76417;SDS011;65250;47.602;19.002;2023-02-13T07:17:33;54.47;;;24.50;;
76417;SDS011;65250;47.602;19.002;2023-02-13T07:20:00;58.28;;;26.80;;
76417;SDS011;65250;47.602;19.002;2023-02-13T07:22:29;65.60;;;28.83;;
76417;SDS011;65250;47.602;19.002;2023-02-13T07:24:58;60.37;;;27.60;;
76417;SDS011;65250;47.602;19.002;2023-02-13T07:27:26;57.45;;;27.38;;
76417;SDS011;65250;47.602;19.002;2023-02-13T07:29:55;54.60;;;26.08;;
76417;SDS011;65250;47.602;19.002;2023-02-13T07:32:24;50.33;;;24.40;;
76417;SDS011;65250;47.602;19.002;2023-02-13T07:34:51;47.88;;;23.38;;
76417;SDS011;65250;47.602;19.002;2023-02-13T07:37:28;39.67;;;20.87;;
76417;SDS011;65250;47.602;19.002;2023-02-13T07:39:56;49.45;;;20.85;;
76417;SDS011;65250;47.602;19.002;2023-02-13T07:42:23;40.55;;;19.92;;
76417;SDS011;65250;47.602;19.002;2023-02-13T07:44:50;34.88;;;17.02;;
76417;SDS011;65250;47.602;19.002;2023-02-13T07:47:18;36.30;;;15.75;;
76417;SDS011;65250;47.602;19.002;2023-02-13T07:49:46;26.17;;;15.07;;
76417;SDS011;65250;47.602;19.002;2023-02-13T07:52:13;26.52;;;13.48;;
76417;SDS011;65250;47.602;19.002;2023-02-13T07:54:40;36.05;;;14.77;;
76417;SDS011;65250;47.602;19.002;2023-02-13T07:57:13;30.42;;;15.90;;
76417;SDS011;65250;47.602;19.002;2023-02-13T07:59:41;34.15;;;16.30;;
76417;SDS011;65250;47.602;19.002;2023-02-13T08:02:11;32.87;;;16.03;;
76417;SDS011;65250;47.602;19.002;2023-02-13T08:04:40;33.65;;;15.82;;
76417;SDS011;65250;47.602;19.002;2023-02-13T08:07:07;28.33;;;16.67;;
76417;SDS011;65250;47.602;19.002;2023-02-13T08:09:34;38.85;;;18.42;;
76417;SDS011;65250;47.602;19.002;2023-02-13T08:12:19;31.23;;;15.50;;
76417;SDS011;65250;47.602;19.002;2023-02-13T08:14:46;31.30;;;16.47;;
76417;SDS011;65250;47.602;19.002;2023-02-13T08:17:13;33.65;;;16.98;;
76417;SDS011;65250;47.602;19.002;2023-02-13T08:19:40;31.88;;;16.13;;
76417;SDS011;65250;47.602;19.002;2023-02-13T08:22:07;30.92;;;15.98;;
76417;SDS011;65250;47.602;19.002;2023-02-13T08:24:34;26.52;;;14.30;;
76417;SDS011;65250;47.602;19.002;2023-02-13T08:27:01;25.03;;;13.83;;
76417;SDS011;65250;47.602;19.002;2023-02-13T08:29:29;25.48;;;12.88;;
76417;SDS011;65250;47.602;19.002;2023-02-13T08:31:56;24.20;;;12.38;;
76417;SDS011;65250;47.602;19.002;2023-02-13T08:34:23;22.70;;;12.35;;
76417;SDS011;65250;47.602;19.002;2023-02-13T08:36:50;21.00;;;10.95;;
76417;SDS011;65250;47.602;19.002;2023-02-13T08:39:17;19.53;;;10.47;;
76417;SDS011;65250;47.602;19.002;2023-02-13T08:41:44;17.42;;;9.63;;
76417;SDS011;65250;47.602;19.002;2023-02-13T08:44:11;19.05;;;9.90;;
76417;SDS011;65250;47.602;19.002;2023-02-13T08:46:39;18.38;;;10.70;;
76417;SDS011;65250;47.602;19.002;2023-02-13T08:49:06;19.45;;;10.75;;
76417;SDS011;65250;47.602;19.002;2023-02-13T08:51:33;19.43;;;11.77;;
76417;SDS011;65250;47.602;19.002;2023-02-13T08:54:00;20.33;;;12.48;;
76417;SDS011;65250;47.602;19.002;2023-02-13T08:56:27;24.98;;;11.93;;
76417;SDS011;65250;47.602;19.002;2023-02-13T08:58:54;20.45;;;11.02;;
76417;SDS011;65250;47.602;19.002;2023-02-13T09:01:21;19.90;;;11.48;;
76417;SDS011;65250;47.602;19.002;2023-02-13T09:03:49;22.47;;;11.93;;
76417;SDS011;65250;47.602;19.002;2023-02-13T09:06:16;20.25;;;11.77;;
76417;SDS011;65250;47.602;19.002;2023-02-13T09:08:44;23.30;;;11.50;;
76417;SDS011;65250;47.602;19.002;2023-02-13T09:11:10;20.42;;;10.38;;
76417;SDS011;65250;47.602;19.002;2023-02-13T09:13:38;20.15;;;10.55;;
76417;SDS011;65250;47.602;19.002;2023-02-13T09:16:05;17.87;;;10.60;;
76417;SDS011;65250;47.602;19.002;2023-02-13T09:18:33;19.33;;;10.25;;
76417;SDS011;65250;47.602;19.002;2023-02-13T09:21:05;20.90;;;10.38;;
76417;SDS011;65250;47.602;19.002;2023-02-13T09:23:34;17.40;;;10.77;;
76417;SDS011;65250;47.602;19.002;2023-02-13T09:26:03;18.35;;;10.32;;
76417;SDS011;65250;47.602;19.002;2023-02-13T09:28:31;14.40;;;9.40;;
76417;SDS011;65250;47.602;19.002;2023-02-13T09:31:03;17.55;;;10.38;;
76417;SDS011;65250;47.602;19.002;2023-02-13T09:33:38;16.27;;;11.00;;
76417;SDS011;65250;47.602;19.002;2023-02-13T09:36:09;17.05;;;9.70;;
76417;SDS011;65250;47.602;19.002;2023-02-13T09:38:39;16.52;;;10.13;;
76417;SDS011;65250;47.602;19.002;2023-02-13T09:41:22;18.17;;;10.53;;
76417;SDS011;65250;47.602;19.002;2023-02-13T09:44:00;15.07;;;9.73;;
76417;SDS011;65250;47.602;19.002;2023-02-13T09:49:10;17.08;;;10.43;;
76417;SDS011;65250;47.602;19.002;2023-02-13T09:51:40;19.33;;;10.90;;
76417;SDS011;65250;47.602;19.002;2023-02-13T09:54:11;15.60;;;9.73;;
76417;SDS011;65250;47.602;19.002;2023-02-13T09:56:49;20.05;;;10.77;;
76417;SDS011;65250;47.602;19.002;2023-02-13T10:01:53;18.08;;;10.93;;
76417;SDS011;65250;47.602;19.002;2023-02-13T10:14:53;26.10;;;11.85;;
76417;SDS011;65250;47.602;19.002;2023-02-13T10:17:33;20.85;;;11.70;;
76417;SDS011;65250;47.602;19.002;2023-02-13T10:20:23;19.87;;;11.73;;
76417;SDS011;65250;47.602;19.002;2023-02-13T10:26:00;20.92;;;11.82;;
76417;SDS011;65250;47.602;19.002;2023-02-13T10:28:30;19.40;;;11.43;;
76417;SDS011;65250;47.602;19.002;2023-02-13T10:31:11;20.85;;;10.70;;
76417;SDS011;65250;47.602;19.002;2023-02-13T10:33:48;18.10;;;11.13;;
76417;SDS011;65250;47.602;19.002;2023-02-13T10:36:18;17.77;;;11.60;;
76417;SDS011;65250;47.602;19.002;2023-02-13T10:38:58;18.52;;;11.38;;
76417;SDS011;65250;47.602;19.002;2023-02-13T11:03:16;23.63;;;11.20;;
76417;SDS011;65250;47.602;19.002;2023-02-13T11:05:45;17.17;;;10.85;;
76417;SDS011;65250;47.602;19.002;2023-02-13T11:08:15;17.73;;;10.40;;
76417;SDS011;65250;47.602;19.002;2023-02-13T11:10:49;15.60;;;10.15;;
76417;SDS011;65250;47.602;19.002;2023-02-13T11:13:18;112.67;;;15.57;;
76417;SDS011;65250;47.602;19.002;2023-02-13T11:16:07;59.40;;;12.85;;
76417;SDS011;65250;47.602;19.002;2023-02-13T11:18:37;17.17;;;10.43;;
76417;SDS011;65250;47.602;19.002;2023-02-13T11:21:10;14.90;;;10.40;;
76417;SDS011;65250;47.602;19.002;2023-02-13T11:23:49;18.88;;;11.38;;
76417;SDS011;65250;47.602;19.002;2023-02-13T11:28:57;18.40;;;10.65;;
76417;SDS011;65250;47.602;19.002;2023-02-13T11:31:28;19.73;;;10.45;;
76417;SDS011;65250;47.602;19.002;2023-02-13T11:33:58;18.52;;;9.38;;
76417;SDS011;65250;47.602;19.002;2023-02-13T11:36:28;22.17;;;10.07;;
76417;SDS011;65250;47.602;19.002;2023-02-13T11:38:57;13.37;;;7.30;;
76417;SDS011;65250;47.602;19.002;2023-02-13T11:41:41;12.40;;;7.35;;
76417;SDS011;65250;47.602;19.002;2023-02-13T11:44:25;23.15;;;7.57;;
76417;SDS011;65250;47.602;19.002;2023-02-13T11:46:55;16.48;;;7.93;;
76417;SDS011;65250;47.602;19.002;2023-02-13T11:49:27;14.48;;;7.60;;
76417;SDS011;65250;47.602;19.002;2023-02-13T11:51:58;15.27;;;8.27;;
76417;SDS011;65250;47.602;19.002;2023-02-13T11:56:56;19.58;;;7.35;;
76417;SDS011;65250;47.602;19.002;2023-02-13T11:59:32;13.20;;;8.00;;
76417;SDS011;65250;47.602;19.002;2023-02-13T12:02:24;18.50;;;7.38;;
76417;SDS011;65250;47.602;19.002;2023-02-13T12:05:19;13.10;;;6.63;;
76417;SDS011;65250;47.602;19.002;2023-02-13T12:07:50;13.65;;;5.32;;
76417;SDS011;65250;47.602;19.002;2023-02-13T12:10:28;18.10;;;6.72;;
76417;SDS011;65250;47.602;19.002;2023-02-13T12:13:01;23.27;;;5.97;;
76417;SDS011;65250;47.602;19.002;2023-02-13T12:15:37;14.85;;;6.03;;
76417;SDS011;65250;47.602;19.002;2023-02-13T12:18:22;8.60;;;4.93;;
76417;SDS011;65250;47.602;19.002;2023-02-13T12:29:13;16.70;;;5.80;;
76417;SDS011;65250;47.602;19.002;2023-02-13T12:45:25;13.90;;;5.50;;
76417;SDS011;65250;47.602;19.002;2023-02-13T12:50:51;14.15;;;6.50;;
76417;SDS011;65250;47.602;19.002;2023-02-13T12:53:35;9.40;;;5.78;;
76417;SDS011;65250;47.602;19.002;2023-02-13T12:56:22;16.77;;;6.20;;
76417;SDS011;65250;47.602;19.002;2023-02-13T12:59:19;11.63;;;6.20;;
76417;SDS011;65250;47.602;19.002;2023-02-13T13:04:47;21.05;;;8.82;;
76417;SDS011;65250;47.602;19.002;2023-02-13T13:07:31;20.88;;;9.30;;
76417;SDS011;65250;47.602;19.002;2023-02-13T13:18:38;20.45;;;10.10;;
76417;SDS011;65250;47.602;19.002;2023-02-13T13:24:22;16.02;;;9.45;;
76417;SDS011;65250;47.602;19.002;2023-02-13T13:26:59;17.50;;;9.83;;
76417;SDS011;65250;47.602;19.002;2023-02-13T13:32:07;20.23;;;10.13;;
76417;SDS011;65250;47.602;19.002;2023-02-13T13:34:39;27.40;;;9.82;;
76417;SDS011;65250;47.602;19.002;2023-02-13T13:39:47;22.60;;;10.60;;
76417;SDS011;65250;47.602;19.002;2023-02-13T13:42:26;29.95;;;11.07;;
76417;SDS011;65250;47.602;19.002;2023-02-13T13:45:07;16.95;;;11.40;;
76417;SDS011;65250;47.602;19.002;2023-02-13T13:50:33;29.42;;;12.25;;
76417;SDS011;65250;47.602;19.002;2023-02-13T14:03:44;19.00;;;10.60;;
76417;SDS011;65250;47.602;19.002;2023-02-13T14:06:13;20.50;;;11.70;;
76417;SDS011;65250;47.602;19.002;2023-02-13T14:16:57;19.00;;;9.70;;
76417;SDS011;65250;47.602;19.002;2023-02-13T14:19:39;19.27;;;10.77;;
76417;SDS011;65250;47.602;19.002;2023-02-13T14:24:51;19.42;;;10.55;;
76417;SDS011;65250;47.602;19.002;2023-02-13T14:27:22;15.93;;;10.88;;
76417;SDS011;65250;47.602;19.002;2023-02-13T14:29:51;16.73;;;9.50;;
76417;SDS011;65250;47.602;19.002;2023-02-13T14:32:21;16.20;;;9.63;;
76417;SDS011;65250;47.602;19.002;2023-02-13T14:34:55;16.40;;;9.23;;
76417;SDS011;65250;47.602;19.002;2023-02-13T14:37:36;13.85;;;8.90;;
76417;SDS011;65250;47.602;19.002;2023-02-13T14:40:26;16.75;;;9.48;;
76417;SDS011;65250;47.602;19.002;2023-02-13T14:43:08;16.85;;;9.50;;
76417;SDS011;65250;47.602;19.002;2023-02-13T14:45:52;16.73;;;8.10;;
76417;SDS011;65250;47.602;19.002;2023-02-13T14:48:21;15.60;;;8.85;;
76417;SDS011;65250;47.602;19.002;2023-02-13T14:50:55;17.25;;;8.52;;
76417;SDS011;65250;47.602;19.002;2023-02-13T14:56:12;14.15;;;7.60;;
76417;SDS011;65250;47.602;19.002;2023-02-13T14:58:45;17.67;;;7.97;;
76417;SDS011;65250;47.602;19.002;2023-02-13T15:04:01;14.57;;;7.93;;
76417;SDS011;65250;47.602;19.002;2023-02-13T15:06:32;15.10;;;6.85;;
76417;SDS011;65250;47.602;19.002;2023-02-13T15:09:05;13.98;;;6.97;;
76417;SDS011;65250;47.602;19.002;2023-02-13T15:11:50;15.83;;;7.50;;
76417;SDS011;65250;47.602;19.002;2023-02-13T15:16:50;12.20;;;6.70;;
76417;SDS011;65250;47.602;19.002;2023-02-13T15:19:20;11.45;;;6.13;;
76417;SDS011;65250;47.602;19.002;2023-02-13T15:21:53;13.43;;;7.13;;
76417;SDS011;65250;47.602;19.002;2023-02-13T15:24:22;14.13;;;6.30;;
76417;SDS011;65250;47.602;19.002;2023-02-13T15:26:55;14.27;;;7.25;;
76417;SDS011;65250;47.602;19.002;2023-02-13T15:29:26;17.85;;;8.70;;
76417;SDS011;65250;47.602;19.002;2023-02-13T15:32:16;19.88;;;9.15;;
76417;SDS011;65250;47.602;19.002;2023-02-13T15:34:46;16.27;;;8.00;;
76417;SDS011;65250;47.602;19.002;2023-02-13T15:37:21;18.60;;;7.53;;
76417;SDS011;65250;47.602;19.002;2023-02-13T15:39:49;18.45;;;8.13;;
76417;SDS011;65250;47.602;19.002;2023-02-13T15:42:16;16.92;;;8.15;;
76417;SDS011;65250;47.602;19.002;2023-02-13T15:44:44;18.77;;;8.57;;
76417;SDS011;65250;47.602;19.002;2023-02-13T15:47:16;25.13;;;10.45;;
76417;SDS011;65250;47.602;19.002;2023-02-13T15:49:47;17.57;;;8.10;;
76417;SDS011;65250;47.602;19.002;2023-02-13T15:52:22;17.00;;;8.85;;
76417;SDS011;65250;47.602;19.002;2023-02-13T15:54:56;27.02;;;10.82;;
76417;SDS011;65250;47.602;19.002;2023-02-13T15:57:25;26.40;;;11.10;;
76417;SDS011;65250;47.602;19.002;2023-02-13T15:59:53;18.70;;;9.00;;
76417;SDS011;65250;47.602;19.002;2023-02-13T16:02:23;18.70;;;7.20;;
76417;SDS011;65250;47.602;19.002;2023-02-13T16:04:55;13.35;;;6.68;;
76417;SDS011;65250;47.602;19.002;2023-02-13T16:07:22;12.40;;;5.80;;
76417;SDS011;65250;47.602;19.002;2023-02-13T16:09:50;12.27;;;5.53;;
76417;SDS011;65250;47.602;19.002;2023-02-13T16:12:19;12.85;;;6.07;;
76417;SDS011;65250;47.602;19.002;2023-02-13T16:14:52;14.63;;;6.93;;
76417;SDS011;65250;47.602;19.002;2023-02-13T16:20:02;11.25;;;5.32;;
76417;SDS011;65250;47.602;19.002;2023-02-13T16:22:38;11.48;;;5.75;;
76417;SDS011;65250;47.602;19.002;2023-02-13T16:30:37;14.95;;;6.88;;
76417;SDS011;65250;47.602;19.002;2023-02-13T16:35:46;14.60;;;5.43;;
76417;SDS011;65250;47.602;19.002;2023-02-13T16:46:34;12.15;;;5.10;;
76417;SDS011;65250;47.602;19.002;2023-02-13T16:54:38;17.13;;;6.20;;
76417;SDS011;65250;47.602;19.002;2023-02-13T16:57:28;12.15;;;5.55;;
76417;SDS011;65250;47.602;19.002;2023-02-13T16:59:58;11.15;;;5.50;;
76417;SDS011;65250;47.602;19.002;2023-02-13T17:02:33;11.55;;;5.93;;
76417;SDS011;65250;47.602;19.002;2023-02-13T17:07:33;12.43;;;6.07;;
76417;SDS011;65250;47.602;19.002;2023-02-13T17:12:36;14.05;;;5.95;;
76417;SDS011;65250;47.602;19.002;2023-02-13T17:15:04;14.00;;;6.38;;
76417;SDS011;65250;47.602;19.002;2023-02-13T17:17:38;17.35;;;6.97;;
76417;SDS011;65250;47.602;19.002;2023-02-13T17:20:07;12.50;;;6.03;;
76417;SDS011;65250;47.602;19.002;2023-02-13T17:22:41;18.60;;;7.72;;
76417;SDS011;65250;47.602;19.002;2023-02-13T17:25:22;15.80;;;6.78;;
76417;SDS011;65250;47.602;19.002;2023-02-13T17:27:55;16.70;;;7.68;;
76417;SDS011;65250;47.602;19.002;2023-02-13T17:30:26;16.23;;;7.38;;
76417;SDS011;65250;47.602;19.002;2023-02-13T17:33:00;21.73;;;7.57;;
76417;SDS011;65250;47.602;19.002;2023-02-13T17:35:33;17.10;;;7.25;;
76417;SDS011;65250;47.602;19.002;2023-02-13T17:38:02;21.73;;;8.18;;
76417;SDS011;65250;47.602;19.002;2023-02-13T17:40:30;16.75;;;8.50;;
76417;SDS011;65250;47.602;19.002;2023-02-13T17:42:58;17.85;;;8.40;;
76417;SDS011;65250;47.602;19.002;2023-02-13T17:45:27;15.40;;;7.83;;
76417;SDS011;65250;47.602;19.002;2023-02-13T17:47:57;15.65;;;7.60;;
76417;SDS011;65250;47.602;19.002;2023-02-13T17:50:25;13.77;;;7.45;;
76417;SDS011;65250;47.602;19.002;2023-02-13T17:52:54;15.82;;;7.63;;
76417;SDS011;65250;47.602;19.002;2023-02-13T17:55:24;18.20;;;8.50;;
76417;SDS011;65250;47.602;19.002;2023-02-13T17:57:52;20.23;;;9.23;;
76417;SDS011;65250;47.602;19.002;2023-02-13T18:00:23;18.55;;;9.13;;
76417;SDS011;65250;47.602;19.002;2023-02-13T18:02:54;19.13;;;9.25;;
76417;SDS011;65250;47.602;19.002;2023-02-13T18:05:22;21.38;;;9.20;;
76417;SDS011;65250;47.602;19.002;2023-02-13T18:07:50;21.25;;;9.95;;